This is the latest recevied weather packets stored in our database for station/object KC5EZZ-2. If no packets are shown the sender has not sent any weather packets the latest 10 day(s).
| Time | Temp. | Humidity | Pressure | Rain* | Wind** | Luminosity | Snow |
|---|---|---|---|---|---|---|---|
| 1787865739 | 25.56° C | - | - | 0 mm | 2.24 m/s, 13° | - | - |
| 1787865435 | 25.56° C | - | - | 0 mm | 1.34 m/s, 276° | - | - |
| 1787865136 | 26.11° C | - | - | 0 mm | 6.26 m/s, 23° | - | - |
| 1787864836 | 25° C | - | - | 0 mm | 8.94 m/s, 59° | - | - |
| 1787864534 | 25° C | - | - | 0 mm | 9.83 m/s, 287° | - | - |
| 1787864234 | 25.56° C | - | - | 0 mm | 12.07 m/s, 23° | - | - |
| 1787863934 | 33.33° C | - | - | 0 mm | 7.15 m/s, 312° | - | - |
| 1787863631 | 37.22° C | - | - | 0 mm | 3.13 m/s, 288° | - | - |
| 1787863331 | 37.22° C | - | - | 0 mm | 0.89 m/s, 297° | - | - |
| 1787863031 | 37.78° C | - | - | 0 mm | 2.68 m/s, 294° | - | - |
| 1787862729 | 38.33° C | - | - | 0 mm | 1.34 m/s, 353° | - | - |
| 1787862429 | 37.78° C | - | - | 0 mm | 0.89 m/s, 294° | - | - |
| 1787862129 | 38.33° C | - | - | 0 mm | 1.79 m/s, 359° | - | - |
| 1787861826 | 38.33° C | - | - | 0 mm | 2.68 m/s, 332° | - | - |
| 1787861526 | 38.89° C | - | - | 0 mm | 4.47 m/s, 300° | - | - |
| 1787861226 | 40° C | - | - | 0 mm | 3.13 m/s, 326° | - | - |
| 1787860923 | 39.44° C | - | - | 0 mm | 2.24 m/s, 349° | - | - |
| 1787860623 | 39.44° C | - | - | 0 mm | 4.47 m/s, 18° | - | - |
| 1787860323 | 39.44° C | - | - | 0 mm | 4.02 m/s, 51° | - | - |
| 1787860020 | 39.44° C | - | - | 0 mm | 3.58 m/s, 115° | - | - |
| 1787859721 | 38.33° C | - | - | 0 mm | 3.13 m/s, 60° | - | - |
| 1787859417 | 38.89° C | - | - | 0 mm | 0.45 m/s, 335° | - | - |
| 1787859114 | 38.33° C | - | - | 0 mm | 0.45 m/s, 308° | - | - |
| 1787858815 | 39.44° C | - | - | 0 mm | 4.02 m/s, 342° | - | - |
| 1787858515 | 38.89° C | - | - | 0 mm | 3.58 m/s, 6° | - | - |
* Rain latest hour (hover to see other rain measurements)
** Current wind speed in m/s (hover to see current wind gust speed)